Dichtehöhe EDMK:
4176 ft.

Basierend auf dem METAR von EDJA:
2024/07/12 14:20 EDJA 121420Z VRB03KT CAVOK 25/17 Q1011

Platzhöhe: 2340 ft.
Temperatur (EDJA): 25 °C
QNH (EDJA): 1011 hPa
Differenz zu Standard-Luftdruck: 2 hPa
Druckhöhe: 2400 ft.
ISA-Standard Temperatur: 10.2 °C
Differenz zu ISA-Standard Temp.: 14.8 °C

Angabe ohne Gewähr. Für die Korrektheit der Daten kann keine Garantie übernommen werden.